createdAt,value
2023-04-25T00:01:25.577Z,15.67
2023-04-25T00:03:58.859Z,16.17
2023-04-25T00:06:37.256Z,14.73
2023-04-25T00:09:12.371Z,14.47
2023-04-25T00:11:44.972Z,16.87
2023-04-25T00:14:19.932Z,12.20
2023-04-25T00:16:52.849Z,14.30
2023-04-25T00:19:26.039Z,15.30
2023-04-25T00:21:59.586Z,16.33
2023-04-25T00:24:32.104Z,16.93
2023-04-25T00:27:05.047Z,13.00
2023-04-25T00:29:37.718Z,14.27
2023-04-25T00:32:11.491Z,15.97
2023-04-25T00:34:44.671Z,18.47
2023-04-25T00:37:17.196Z,15.47
2023-04-25T00:39:51.394Z,18.50
2023-04-25T00:42:24.821Z,18.00
2023-04-25T00:44:58.164Z,13.83
2023-04-25T00:47:34.359Z,16.75
2023-04-25T00:50:09.179Z,15.87
2023-04-25T00:52:45.393Z,19.63
2023-04-25T00:55:20.603Z,17.75
2023-04-25T00:57:54.624Z,13.83
2023-04-25T01:00:27.409Z,15.15
2023-04-25T01:03:01.717Z,15.43
2023-04-25T01:05:34.595Z,17.93
2023-04-25T01:08:07.411Z,17.47
2023-04-25T01:10:46.200Z,15.40
2023-04-25T01:13:18.658Z,14.77
2023-04-25T01:15:53.647Z,18.27
2023-04-25T01:18:26.310Z,17.10
2023-04-25T01:20:59.762Z,17.10
2023-04-25T01:23:34.540Z,12.73
2023-04-25T01:26:08.757Z,14.23
2023-04-25T01:28:42.902Z,13.30
2023-04-25T01:31:18.933Z,14.20
2023-04-25T01:33:52.713Z,12.93
2023-04-25T01:36:26.427Z,15.20
2023-04-25T01:39:00.406Z,14.70
2023-04-25T01:41:33.707Z,12.43
2023-04-25T01:44:11.646Z,14.05
2023-04-25T01:46:47.800Z,13.50
2023-04-25T01:49:20.464Z,13.57
2023-04-25T01:51:54.062Z,14.17
2023-04-25T01:54:27.365Z,12.20
2023-04-25T01:57:01.173Z,12.30
2023-04-25T01:59:33.946Z,12.07
2023-04-25T02:02:24.204Z,15.20
2023-04-25T02:04:59.263Z,17.05
2023-04-25T02:07:34.372Z,13.53
2023-04-25T02:10:08.837Z,14.53
2023-04-25T02:12:48.159Z,12.53
2023-04-25T02:15:46.789Z,19.73
2023-04-25T02:21:00.655Z,15.03
2023-04-25T02:23:34.589Z,17.77
2023-04-25T02:26:08.358Z,15.98
2023-04-25T02:28:44.309Z,15.30
2023-04-25T02:31:16.725Z,14.47
2023-04-25T02:33:50.539Z,13.50
2023-04-25T02:38:54.947Z,13.10
2023-04-25T02:41:27.266Z,15.77
2023-04-25T02:44:01.636Z,15.07
2023-04-25T02:46:39.541Z,13.32
2023-04-25T02:49:14.454Z,15.80
2023-04-25T02:51:47.434Z,14.67
2023-04-25T02:54:21.001Z,14.40
2023-04-25T02:56:54.969Z,14.57
2023-04-25T02:59:31.214Z,11.93
2023-04-25T03:02:04.904Z,15.80
2023-04-25T03:04:38.241Z,12.13
2023-04-25T03:07:13.137Z,12.33
2023-04-25T03:09:45.859Z,13.63
2023-04-25T03:12:18.761Z,12.40
2023-04-25T03:14:51.985Z,15.73
2023-04-25T03:17:27.712Z,14.47
2023-04-25T03:20:01.735Z,13.60
2023-04-25T03:22:35.361Z,13.47
2023-04-25T03:25:10.145Z,14.83
2023-04-25T03:27:42.748Z,13.05
2023-04-25T03:30:19.058Z,13.77
2023-04-25T03:32:52.370Z,11.80
2023-04-25T03:35:26.190Z,14.13
2023-04-25T03:37:59.169Z,10.93
2023-04-25T03:40:35.295Z,11.23
2023-04-25T03:43:34.106Z,11.70
2023-04-25T03:46:10.772Z,9.63
2023-04-25T03:51:15.409Z,8.35
2023-04-25T03:53:49.677Z,9.63
2023-04-25T03:56:22.684Z,9.97
2023-04-25T03:59:01.239Z,12.63
2023-04-25T04:01:35.558Z,10.30
2023-04-25T04:04:12.433Z,9.07
2023-04-25T04:06:46.475Z,11.03
2023-04-25T04:09:28.702Z,11.47
2023-04-25T04:12:03.738Z,9.20
2023-04-25T04:14:39.346Z,9.37
2023-04-25T04:17:12.075Z,8.27
2023-04-25T04:19:47.607Z,8.90
2023-04-25T04:22:27.097Z,9.53
2023-04-25T04:25:03.739Z,9.03
2023-04-25T04:28:00.094Z,9.63
2023-04-25T04:30:56.798Z,9.97
2023-04-25T04:33:29.270Z,9.70
2023-04-25T04:36:09.526Z,9.87
2023-04-25T04:38:44.007Z,10.05
2023-04-25T04:41:24.410Z,11.50
2023-04-25T04:44:19.393Z,9.90
2023-04-25T04:47:14.247Z,9.77
2023-04-25T04:50:03.657Z,12.77
2023-04-25T04:52:45.687Z,10.60
2023-04-25T04:55:45.613Z,10.53
2023-04-25T04:58:38.386Z,10.33
2023-04-25T05:01:18.439Z,9.97
2023-04-25T05:04:14.704Z,10.27
2023-04-25T05:07:26.342Z,10.23
2023-04-25T05:10:12.398Z,8.93
2023-04-25T05:13:08.265Z,10.20
2023-04-25T05:15:57.128Z,10.67
2023-04-25T05:18:55.253Z,8.57
2023-04-25T05:21:59.221Z,10.83
2023-04-25T05:24:46.938Z,12.53
2023-04-25T05:27:45.611Z,8.40
2023-04-25T05:30:47.702Z,19.95
2023-04-25T05:33:42.883Z,9.27
2023-04-25T05:36:15.280Z,11.83
2023-04-25T05:38:48.233Z,9.53
2023-04-25T05:41:21.616Z,12.60
2023-04-25T05:44:03.468Z,10.90
2023-04-25T05:46:50.654Z,11.90
2023-04-25T05:49:38.096Z,12.70
2023-04-25T05:52:26.456Z,9.20
2023-04-25T05:55:22.589Z,13.33
2023-04-25T05:57:55.368Z,9.97
2023-04-25T06:00:28.979Z,10.15
2023-04-25T06:03:02.966Z,9.20
2023-04-25T06:05:35.763Z,10.70
2023-04-25T06:08:08.913Z,9.67
2023-04-25T06:10:41.732Z,9.80
2023-04-25T06:13:14.208Z,18.47
2023-04-25T06:15:48.000Z,17.77
2023-04-25T06:18:20.871Z,14.55
2023-04-25T06:20:53.879Z,15.30
2023-04-25T06:23:26.726Z,11.00
2023-04-25T06:26:07.038Z,9.33
2023-04-25T06:28:40.356Z,9.47
2023-04-25T06:31:12.863Z,9.53
2023-04-25T06:33:45.742Z,9.53
2023-04-25T06:36:18.034Z,11.27
2023-04-25T06:38:52.925Z,8.40
2023-04-25T06:41:25.784Z,9.27
2023-04-25T06:43:58.715Z,10.40
2023-04-25T06:46:39.315Z,9.70
2023-04-25T06:49:12.537Z,10.67
2023-04-25T06:51:45.636Z,8.77
2023-04-25T06:54:19.344Z,9.37
2023-04-25T06:57:02.126Z,8.70
2023-04-25T06:59:35.011Z,9.88
2023-04-25T07:02:10.250Z,8.80
2023-04-25T07:04:43.475Z,10.67
2023-04-25T07:07:27.552Z,9.87
2023-04-25T07:10:09.681Z,9.57
2023-04-25T07:12:43.131Z,9.87
2023-04-25T07:15:15.879Z,9.13
2023-04-25T07:17:51.243Z,10.23
2023-04-25T07:20:25.408Z,8.30
2023-04-25T07:22:58.833Z,9.53
2023-04-25T07:25:31.842Z,9.38
2023-04-25T07:28:05.568Z,9.53
2023-04-25T07:30:38.042Z,9.33
2023-04-25T07:33:11.576Z,10.93
2023-04-25T07:35:44.117Z,10.55
2023-04-25T07:38:20.093Z,8.87
2023-04-25T07:40:54.455Z,8.23
2023-04-25T07:43:29.909Z,7.93
2023-04-25T07:46:08.279Z,7.90
2023-04-25T07:48:43.370Z,9.77
2023-04-25T07:51:16.263Z,6.30
2023-04-25T07:53:49.552Z,9.23
2023-04-25T07:56:24.538Z,6.83
2023-04-25T07:58:58.473Z,7.17
2023-04-25T08:01:31.674Z,7.83
2023-04-25T08:04:08.858Z,5.63
2023-04-25T08:07:03.180Z,6.30
2023-04-25T08:09:41.252Z,5.73
2023-04-25T08:12:19.441Z,6.20
2023-04-25T08:14:56.652Z,5.43
2023-04-25T08:17:30.661Z,7.80
2023-04-25T08:20:06.625Z,8.10
2023-04-25T08:22:40.576Z,6.50
2023-04-25T08:25:32.306Z,8.07
2023-04-25T08:28:05.389Z,6.30
2023-04-25T08:30:38.954Z,5.83
2023-04-25T08:33:16.276Z,5.87
2023-04-25T08:36:31.549Z,7.47
2023-04-25T08:39:11.265Z,5.37
2023-04-25T08:41:52.489Z,5.33
2023-04-25T08:44:26.303Z,5.63
2023-04-25T08:46:59.875Z,4.72
2023-04-25T08:49:37.459Z,5.17
2023-04-25T08:52:15.357Z,5.37
2023-04-25T08:54:52.806Z,4.87
2023-04-25T08:57:28.862Z,5.13
2023-04-25T09:00:06.761Z,5.67
2023-04-25T09:02:41.323Z,5.77
2023-04-25T09:05:17.037Z,5.20
2023-04-25T09:07:53.279Z,4.63
2023-04-25T09:10:25.617Z,5.53
2023-04-25T09:13:12.573Z,5.30
2023-04-25T09:16:24.003Z,5.95
2023-04-25T09:19:39.804Z,5.33
2023-04-25T09:22:31.563Z,7.33
2023-04-25T09:25:09.883Z,4.87
2023-04-25T09:27:54.575Z,8.87
2023-04-25T09:30:40.004Z,6.10
2023-04-25T09:33:19.157Z,6.17
2023-04-25T09:35:57.794Z,4.83
2023-04-25T09:38:54.751Z,6.67
2023-04-25T09:41:37.525Z,5.27
2023-04-25T09:44:10.801Z,5.93
2023-04-25T09:46:45.182Z,5.93
2023-04-25T09:49:23.743Z,8.53
2023-04-25T09:52:11.985Z,6.73
2023-04-25T09:57:32.585Z,7.50
2023-04-25T10:00:06.651Z,7.40
2023-04-25T10:02:51.471Z,10.60
2023-04-25T10:05:42.304Z,8.47
2023-04-25T10:08:16.010Z,8.33
2023-04-25T10:10:55.343Z,5.33
2023-04-25T10:13:28.453Z,6.93
2023-04-25T10:16:01.879Z,6.23
2023-04-25T10:18:36.296Z,8.43
2023-04-25T10:21:09.787Z,6.77
2023-04-25T10:23:42.950Z,6.33
2023-04-25T10:26:15.735Z,7.07
2023-04-25T10:29:02.322Z,7.97
2023-04-25T10:31:36.571Z,8.57
2023-04-25T10:34:09.358Z,7.23
2023-04-25T10:36:42.172Z,6.50
2023-04-25T10:39:14.761Z,7.70
2023-04-25T10:41:58.705Z,7.23
2023-04-25T10:44:33.813Z,6.42
2023-04-25T10:47:08.832Z,13.80
2023-04-25T10:49:46.135Z,8.80
2023-04-25T10:52:28.013Z,9.10
2023-04-25T10:55:01.722Z,10.67
2023-04-25T10:57:47.567Z,9.45
2023-04-25T11:00:25.908Z,7.60
2023-04-25T11:03:04.639Z,5.60
2023-04-25T11:05:55.208Z,10.17
2023-04-25T11:08:43.165Z,6.07
2023-04-25T11:11:17.185Z,6.53
2023-04-25T11:13:51.871Z,5.27
2023-04-25T11:16:29.044Z,5.77
2023-04-25T11:19:03.849Z,7.43
2023-04-25T11:21:36.129Z,5.60
2023-04-25T11:24:10.116Z,6.10
2023-04-25T11:26:45.206Z,6.93
2023-04-25T11:29:17.578Z,5.57
2023-04-25T11:31:52.173Z,4.40
2023-04-25T11:34:27.275Z,5.60
2023-04-25T11:37:00.875Z,5.67
2023-04-25T11:39:36.141Z,7.12
2023-04-25T11:42:12.138Z,5.73
2023-04-25T11:44:46.926Z,5.40
2023-04-25T11:47:19.605Z,5.17
2023-04-25T11:49:56.441Z,6.03
2023-04-25T11:52:37.252Z,6.10
2023-04-25T11:55:15.880Z,4.13
2023-04-25T11:57:51.287Z,5.77
2023-04-25T12:00:27.454Z,7.07
2023-04-25T12:03:01.750Z,6.13
2023-04-25T12:05:35.761Z,6.63
2023-04-25T12:10:51.765Z,6.83
2023-04-25T12:13:29.327Z,4.73
2023-04-25T12:16:04.497Z,6.63
2023-04-25T12:18:40.356Z,5.37
2023-04-25T12:21:14.497Z,10.20
2023-04-25T12:23:46.832Z,6.57
2023-04-25T12:26:23.570Z,4.97
2023-04-25T12:28:56.623Z,7.17
2023-04-25T12:31:32.117Z,6.33
2023-04-25T12:34:05.626Z,5.27
2023-04-25T12:36:38.310Z,5.43
2023-04-25T12:39:11.445Z,6.90
2023-04-25T12:41:46.179Z,6.27
2023-04-25T12:44:18.836Z,4.77
2023-04-25T12:46:52.784Z,5.00
2023-04-25T12:49:26.901Z,5.70
2023-04-25T12:52:01.118Z,5.87
2023-04-25T12:57:18.516Z,7.33
2023-04-25T12:59:51.006Z,6.17
2023-04-25T13:02:27.448Z,7.33
2023-04-25T13:05:00.135Z,7.03
2023-04-25T13:07:34.155Z,9.43
2023-04-25T13:10:09.959Z,6.73
2023-04-25T13:12:42.619Z,7.07
2023-04-25T13:15:16.678Z,7.40
2023-04-25T13:17:49.505Z,7.70
2023-04-25T13:20:23.597Z,7.40
2023-04-25T13:25:27.207Z,6.13
2023-04-25T13:28:00.937Z,8.67
2023-04-25T13:30:33.325Z,6.28
2023-04-25T13:33:07.905Z,8.07
2023-04-25T13:35:41.699Z,8.33
2023-04-25T13:38:14.255Z,8.63
2023-04-25T13:40:47.269Z,7.90
2023-04-25T13:43:19.775Z,7.63
2023-04-25T13:45:52.642Z,8.07
2023-04-25T13:48:27.982Z,8.87
2023-04-25T13:51:02.501Z,6.87
2023-04-25T13:53:35.714Z,8.17
2023-04-25T13:56:08.995Z,9.83
2023-04-25T13:58:42.258Z,6.60
2023-04-25T14:01:14.833Z,9.10
2023-04-25T14:03:48.422Z,7.33
2023-04-25T14:06:24.040Z,7.70
2023-04-25T14:09:02.090Z,7.77
2023-04-25T14:11:36.132Z,8.33
2023-04-25T14:14:08.858Z,7.70
2023-04-25T14:16:41.616Z,6.63
2023-04-25T14:19:14.505Z,6.73
2023-04-25T14:21:47.574Z,6.93
2023-04-25T14:24:20.501Z,8.27
2023-04-25T14:26:53.424Z,7.10
2023-04-25T14:29:29.516Z,6.60
2023-04-25T14:32:03.312Z,7.50
2023-04-25T14:34:37.233Z,6.77
2023-04-25T14:37:09.806Z,6.03
2023-04-25T14:39:44.155Z,6.67
2023-04-25T14:42:18.790Z,7.50
2023-04-25T14:44:58.789Z,9.30
2023-04-25T14:47:31.469Z,8.20
2023-04-25T14:50:04.343Z,7.20
2023-04-25T14:52:37.327Z,7.97
2023-04-25T14:55:11.167Z,8.73
2023-04-25T14:57:43.845Z,9.10
2023-04-25T15:00:19.357Z,8.53
2023-04-25T15:02:56.730Z,13.50
2023-04-25T15:05:29.761Z,7.67
2023-04-25T15:08:02.631Z,9.03
2023-04-25T15:10:35.467Z,9.40
2023-04-25T15:13:08.737Z,8.60
2023-04-25T15:15:41.802Z,8.93
2023-04-25T15:18:14.461Z,9.97
2023-04-25T15:20:47.641Z,8.17
2023-04-25T15:23:22.388Z,8.55
2023-04-25T15:25:56.782Z,8.80
2023-04-25T15:31:01.680Z,10.67
2023-04-25T15:33:34.045Z,8.30
2023-04-25T15:36:07.766Z,8.23
2023-04-25T15:38:40.635Z,7.83
2023-04-25T15:41:15.499Z,9.77
2023-04-25T15:43:50.709Z,13.27
2023-04-25T15:46:24.015Z,12.10
2023-04-25T15:48:59.238Z,8.93
2023-04-25T15:51:32.165Z,12.60
2023-04-25T15:54:05.664Z,12.87
2023-04-25T15:56:38.028Z,8.27
2023-04-25T15:59:10.824Z,9.30
2023-04-25T16:01:44.624Z,9.80
2023-04-25T16:04:18.024Z,13.37
2023-04-25T16:06:50.835Z,9.17
2023-04-25T16:09:23.551Z,10.03
2023-04-25T16:11:56.795Z,11.90
2023-04-25T16:14:29.458Z,6.73
2023-04-25T16:17:01.836Z,10.87
2023-04-25T16:19:34.710Z,13.50
2023-04-25T16:22:09.109Z,11.60
2023-04-25T16:24:41.629Z,11.70
2023-04-25T16:27:13.990Z,10.17
2023-04-25T16:29:46.698Z,12.13
2023-04-25T16:32:19.220Z,7.40
2023-04-25T16:34:51.596Z,10.83
2023-04-25T16:37:26.426Z,6.80
2023-04-25T16:40:00.017Z,7.63
2023-04-25T16:42:33.224Z,11.05
2023-04-25T16:45:11.217Z,8.93
2023-04-25T16:47:43.586Z,9.00
2023-04-25T16:50:16.527Z,8.23
2023-04-25T16:52:49.189Z,7.00
2023-04-25T16:55:22.501Z,8.57
2023-04-25T16:57:55.977Z,9.07
2023-04-25T17:00:28.340Z,10.88
2023-04-25T17:03:02.150Z,7.80
2023-04-25T17:08:07.024Z,13.60
2023-04-25T17:10:39.399Z,8.58
2023-04-25T17:13:12.113Z,9.30
2023-04-25T17:15:44.647Z,11.47
2023-04-25T17:18:18.510Z,11.23
2023-04-25T17:20:51.207Z,12.60
2023-04-25T17:23:24.823Z,8.27
2023-04-25T17:25:57.330Z,7.33
2023-04-25T17:28:33.402Z,10.37
2023-04-25T17:31:05.933Z,8.97
2023-04-25T17:33:39.057Z,9.00
2023-04-25T17:36:11.885Z,8.60
2023-04-25T17:38:44.262Z,12.55
2023-04-25T17:41:17.717Z,9.65
2023-04-25T17:43:50.930Z,9.45
2023-04-25T17:46:23.283Z,15.23
2023-04-25T17:48:56.426Z,15.17
2023-04-25T17:51:29.945Z,11.17
2023-04-25T17:54:02.642Z,12.23
2023-04-25T17:56:39.935Z,12.37
2023-04-25T17:59:13.697Z,11.53
2023-04-25T18:01:48.050Z,10.68
2023-04-25T18:04:22.176Z,12.13
2023-04-25T18:06:56.094Z,9.83
2023-04-25T18:09:28.746Z,10.30
2023-04-25T18:12:04.941Z,12.63
2023-04-25T18:14:38.975Z,11.30
2023-04-25T18:17:12.837Z,11.37
2023-04-25T18:19:48.991Z,9.65
2023-04-25T18:22:22.337Z,13.43
2023-04-25T18:24:56.930Z,13.23
2023-04-25T18:27:29.783Z,12.97
2023-04-25T18:30:03.015Z,13.87
2023-04-25T18:32:36.145Z,13.33
2023-04-25T18:35:10.806Z,16.40
2023-04-25T18:37:45.445Z,9.87
2023-04-25T18:40:18.647Z,12.70
2023-04-25T18:42:52.419Z,24.30
2023-04-25T18:45:26.056Z,15.55
2023-04-25T18:48:02.533Z,16.93
2023-04-25T18:50:35.915Z,16.40
2023-04-25T18:53:08.795Z,13.47
2023-04-25T18:55:42.484Z,16.40
2023-04-25T19:00:54.061Z,15.73
2023-04-25T19:03:28.968Z,15.93
2023-04-25T19:06:03.469Z,15.25
2023-04-25T19:08:37.673Z,16.90
2023-04-25T19:13:57.475Z,15.97
2023-04-25T19:16:30.532Z,13.80
2023-04-25T19:19:04.337Z,13.37
2023-04-25T19:21:37.505Z,13.85
2023-04-25T19:24:11.977Z,15.80
2023-04-25T19:26:47.001Z,14.20
2023-04-25T19:29:21.772Z,14.87
2023-04-25T19:31:57.416Z,15.35
2023-04-25T19:34:30.188Z,16.00
2023-04-25T19:37:02.480Z,13.57
2023-04-25T19:39:34.888Z,12.03
2023-04-25T19:42:08.927Z,14.50
2023-04-25T19:44:41.760Z,13.98
2023-04-25T19:47:14.044Z,15.23
2023-04-25T19:49:48.655Z,16.07
2023-04-25T19:52:22.212Z,13.37
2023-04-25T19:54:58.490Z,13.83
2023-04-25T19:57:33.342Z,16.00
2023-04-25T20:00:11.104Z,17.85
2023-04-25T20:02:49.918Z,15.60
2023-04-25T20:05:23.750Z,17.62
2023-04-25T20:07:57.159Z,15.28
2023-04-25T20:10:29.519Z,12.77
2023-04-25T20:13:02.461Z,15.57
2023-04-25T20:15:35.022Z,16.10
2023-04-25T20:18:07.498Z,15.80
2023-04-25T20:20:41.228Z,15.27
2023-04-25T20:23:13.639Z,15.75
2023-04-25T20:25:48.298Z,15.77
2023-04-25T20:28:23.422Z,16.10
2023-04-25T20:30:57.567Z,15.73
2023-04-25T20:36:05.153Z,15.50
2023-04-25T20:38:38.019Z,22.20
2023-04-25T20:41:10.947Z,19.03
2023-04-25T20:43:44.496Z,17.85
2023-04-25T20:46:17.987Z,17.02
2023-04-25T20:48:53.531Z,15.70
2023-04-25T20:51:27.989Z,17.37
2023-04-25T20:54:04.057Z,14.90
2023-04-25T20:56:40.359Z,17.77
2023-04-25T20:59:14.170Z,15.33
2023-04-25T21:01:46.598Z,16.30
2023-04-25T21:04:20.675Z,15.93
2023-04-25T21:06:53.141Z,15.87
2023-04-25T21:09:26.259Z,15.17
2023-04-25T21:11:59.649Z,15.23
2023-04-25T21:14:32.434Z,17.23
2023-04-25T21:17:05.137Z,15.17
2023-04-25T21:19:37.685Z,17.53
2023-04-25T21:22:12.470Z,21.60
2023-04-25T21:24:45.246Z,16.20
2023-04-25T21:27:18.812Z,16.50
2023-04-25T21:29:52.555Z,15.80
2023-04-25T21:32:25.387Z,16.90
2023-04-25T21:34:58.799Z,18.47
2023-04-25T21:37:31.120Z,15.97
2023-04-25T21:40:04.775Z,19.10
2023-04-25T21:42:37.644Z,19.07
2023-04-25T21:45:15.271Z,19.93
2023-04-25T21:47:48.488Z,19.73
2023-04-25T21:50:23.016Z,20.57
2023-04-25T21:52:58.982Z,19.57
2023-04-25T21:55:31.868Z,20.53
2023-04-25T21:58:05.394Z,21.53
2023-04-25T22:00:37.890Z,21.02
2023-04-25T22:03:10.413Z,19.70
2023-04-25T22:05:45.310Z,21.63
2023-04-25T22:08:17.768Z,19.37
2023-04-25T22:10:55.601Z,15.50
2023-04-25T22:13:29.239Z,18.17
2023-04-25T22:16:02.454Z,14.97
2023-04-25T22:18:38.181Z,13.87
2023-04-25T22:21:10.782Z,14.37
2023-04-25T22:23:43.329Z,17.40
2023-04-25T22:26:15.901Z,14.67
2023-04-25T22:28:48.191Z,13.63
2023-04-25T22:31:22.959Z,15.67
2023-04-25T22:33:56.377Z,13.60
2023-04-25T22:36:30.435Z,11.40
2023-04-25T22:39:06.080Z,13.93
2023-04-25T22:41:39.279Z,14.23
2023-04-25T22:44:12.224Z,11.43
2023-04-25T22:46:44.809Z,10.57
2023-04-25T22:49:17.604Z,16.30
2023-04-25T22:51:54.932Z,11.63
2023-04-25T22:54:28.681Z,14.80
2023-04-25T22:57:03.857Z,10.67
2023-04-25T22:59:38.229Z,10.30
2023-04-25T23:02:11.216Z,12.83
2023-04-25T23:04:44.932Z,12.07
2023-04-25T23:07:18.781Z,10.53
2023-04-25T23:09:54.405Z,11.43
2023-04-25T23:12:31.714Z,10.83
2023-04-25T23:15:05.597Z,10.80
2023-04-25T23:17:38.526Z,11.68
2023-04-25T23:20:12.502Z,9.03
2023-04-25T23:22:44.909Z,10.50
2023-04-25T23:25:18.364Z,10.90
2023-04-25T23:27:51.206Z,10.70
2023-04-25T23:30:24.043Z,11.40
2023-04-25T23:33:01.472Z,12.50
2023-04-25T23:35:38.712Z,11.63
2023-04-25T23:38:16.688Z,10.97
2023-04-25T23:40:51.609Z,12.33
2023-04-25T23:43:24.369Z,10.80
2023-04-25T23:46:00.431Z,13.17
2023-04-25T23:48:33.084Z,16.60
2023-04-25T23:51:06.552Z,15.43
2023-04-25T23:53:40.619Z,8.35
2023-04-25T23:56:16.007Z,12.47
2023-04-25T23:58:48.883Z,11.53
